Time;durP1;ratioP1;P1;durP2;ratioP2;P2;SDS_P1;SDS_P2;PMS_P1;PMS_P2;Temp;Humidity;BMP_temperature;BMP_pressure;BME280_temperature;BME280_humidity;BME280_pressure;Samples;Min_cycle;Max_cycle;Signal;HPM_P1;HPM_P2
2021/07/07 00:02:08;;;;;;;;;;;16.20;99.90;;;;;;4999001;28;19917;-87
2021/07/07 00:04:34;;;;;;;;;;;16.10;99.90;;;;;;4998992;28;20281;-88
2021/07/07 00:06:59;;;;;;;;;;;16.10;99.90;;;;;;4998959;28;19952;-87
2021/07/07 00:09:25;;;;;;;;;;;16.10;99.90;;;;;;4998915;28;19909;-88
2021/07/07 00:11:50;;;;;;;;;;;16.10;99.90;;;;;;4998676;28;19916;-85
2021/07/07 00:14:16;;;;;;;;;;;16.20;99.90;;;;;;4996935;28;20392;-84
2021/07/07 00:16:42;;;;;;;;;;;16.20;99.90;;;;;;4996662;28;20384;-85
2021/07/07 00:19:08;;;;;;;;;;;16.20;99.90;;;;;;4996467;28;19921;-85
2021/07/07 00:21:33;;;;;;;;;;;16.20;99.90;;;;;;4996921;28;20007;-86
2021/07/07 00:23:59;;;;;;;;;;;16.20;99.90;;;;;;4997163;28;19917;-86
2021/07/07 00:26:24;;;;;;;;;;;16.20;99.90;;;;;;4996585;28;19909;-85
2021/07/07 00:28:50;;;;;;;;;;;16.20;99.90;;;;;;4996668;28;19918;-85
2021/07/07 00:31:15;;;;;;;;;;;16.20;99.90;;;;;;5015312;28;19917;-86
2021/07/07 00:33:41;;;;;;;;;;;16.30;99.90;;;;;;4997952;28;19917;-86
2021/07/07 00:36:07;;;;;;;;;;;16.30;99.90;;;;;;4997566;28;19910;-84
2021/07/07 00:38:33;;;;;;;;;;;16.30;99.90;;;;;;4996773;28;19910;-85
2021/07/07 00:40:58;;;;;;;;;;;16.30;99.90;;;;;;4997543;28;20261;-85
2021/07/07 00:43:24;;;;;;;;;;;16.30;99.90;;;;;;4997960;28;19909;-85
2021/07/07 00:45:49;;;;;;;;;;;16.30;99.90;;;;;;4997632;28;20004;-86
2021/07/07 00:48:15;;;;;;;;;;;16.30;99.90;;;;;;4997418;28;19910;-85
2021/07/07 00:50:43;;;;;;;;;;;16.30;99.90;;;;;;5015230;28;19910;-85
2021/07/07 00:53:12;;;;;;;;;;;16.40;99.90;;;;;;4997625;28;20563;-86
2021/07/07 00:55:39;;;;;;;;;;;16.40;99.90;;;;;;4997468;28;19909;-85
2021/07/07 00:58:07;;;;;;;;;;;16.40;99.90;;;;;;4997332;28;20005;-86
2021/07/07 01:00:33;;;;;;;;;;;16.30;99.90;;;;;;5014891;28;20306;-86
2021/07/07 01:03:01;;;;;;;;;;;16.30;99.90;;;;;;4997293;28;20007;-85
2021/07/07 01:05:27;;;;;;;;;;;16.30;99.90;;;;;;4997357;28;19910;-85
2021/07/07 01:07:52;;;;;;;;;;;16.30;99.90;;;;;;4996927;28;19916;-86
2021/07/07 01:10:18;;;;;;;;;;;16.30;99.90;;;;;;4997347;28;19917;-85
2021/07/07 01:12:44;;;;;;;;;;;16.30;99.90;;;;;;4997255;28;20365;-84
2021/07/07 01:15:11;;;;;;;;;;;16.30;99.90;;;;;;4997111;28;19910;-85
2021/07/07 01:17:37;;;;;;;;;;;16.30;99.90;;;;;;4996817;28;19964;-85
2021/07/07 01:20:07;;;;;;;;;;;16.30;99.90;;;;;;4996978;28;19914;-86
2021/07/07 01:22:33;;;;;;;;;;;16.30;99.90;;;;;;4997010;28;19932;-86
2021/07/07 01:24:58;;;;;;;;;;;16.30;99.90;;;;;;4997068;28;20368;-85
2021/07/07 01:27:25;;;;;;;;;;;16.30;99.90;;;;;;4996880;28;19916;-84
2021/07/07 01:29:52;;;;;;;;;;;16.30;99.90;;;;;;4996667;28;20277;-86
2021/07/07 01:32:17;;;;;;;;;;;16.40;99.90;;;;;;4995885;28;20338;-86
2021/07/07 01:34:43;;;;;;;;;;;16.30;99.90;;;;;;4996909;28;20004;-86
2021/07/07 01:37:08;;;;;;;;;;;16.30;99.90;;;;;;4996441;28;20288;-85
2021/07/07 01:39:34;;;;;;;;;;;16.30;99.90;;;;;;4996670;28;19914;-86
2021/07/07 01:41:59;;;;;;;;;;;16.20;99.90;;;;;;4996726;28;19914;-86
2021/07/07 01:44:24;;;;;;;;;;;16.20;99.90;;;;;;4996630;28;20275;-86
2021/07/07 01:46:50;;;;;;;;;;;16.30;99.90;;;;;;5013826;28;19909;-86
2021/07/07 01:49:15;;;;;;;;;;;16.30;99.90;;;;;;4996454;28;20492;-86
2021/07/07 01:51:41;;;;;;;;;;;16.30;99.90;;;;;;4996232;28;19923;-86
2021/07/07 01:54:06;;;;;;;;;;;16.40;99.90;;;;;;5013971;28;19913;-86
2021/07/07 01:56:32;;;;;;;;;;;16.40;99.90;;;;;;4996131;28;19945;-85
2021/07/07 01:58:58;;;;;;;;;;;16.40;99.90;;;;;;5013506;28;19996;-86
2021/07/07 02:01:23;;;;;;;;;;;16.40;99.90;;;;;;4996026;28;20016;-86
2021/07/07 02:03:49;;;;;;;;;;;16.40;99.90;;;;;;4996129;28;19913;-85
2021/07/07 02:06:14;;;;;;;;;;;16.40;99.90;;;;;;4995677;28;20005;-86
2021/07/07 02:08:40;;;;;;;;;;;16.40;99.90;;;;;;5013407;28;19977;-86
2021/07/07 02:11:06;;;;;;;;;;;16.40;99.90;;;;;;4995858;28;19909;-86
2021/07/07 02:13:31;;;;;;;;;;;16.40;99.90;;;;;;4995871;28;19916;-85
2021/07/07 02:15:57;;;;;;;;;;;16.40;99.90;;;;;;4995810;28;19917;-85
2021/07/07 02:18:22;;;;;;;;;;;16.40;99.90;;;;;;4995552;28;19937;-86
2021/07/07 02:20:48;;;;;;;;;;;16.40;99.90;;;;;;4995789;28;19914;-86
2021/07/07 02:23:14;;;;;;;;;;;16.40;99.90;;;;;;5013398;28;19910;-85
2021/07/07 02:25:43;;;;;;;;;;;16.40;99.90;;;;;;4995729;28;19917;-85
2021/07/07 02:28:09;;;;;;;;;;;16.40;99.90;;;;;;4995359;28;19909;-86
2021/07/07 02:30:36;;;;;;;;;;;16.40;99.90;;;;;;5013007;28;19920;-86
2021/07/07 02:33:02;;;;;;;;;;;16.40;99.90;;;;;;4995431;28;19992;-86
2021/07/07 02:35:29;;;;;;;;;;;16.40;99.90;;;;;;4995533;28;19913;-87
2021/07/07 02:37:55;;;;;;;;;;;16.40;99.90;;;;;;4995196;28;20000;-86
2021/07/07 02:40:23;;;;;;;;;;;16.40;99.90;;;;;;4995504;28;19913;-86
2021/07/07 02:42:49;;;;;;;;;;;16.30;99.90;;;;;;5013106;28;19949;-86
2021/07/07 02:45:15;;;;;;;;;;;16.30;99.90;;;;;;4995208;28;19953;-86
2021/07/07 02:47:42;;;;;;;;;;;16.20;99.90;;;;;;4995151;28;19909;-86
2021/07/07 02:50:08;;;;;;;;;;;16.20;99.90;;;;;;4995636;28;19917;-87
2021/07/07 02:52:33;;;;;;;;;;;16.30;99.90;;;;;;4995357;28;20491;-86
2021/07/07 02:54:59;;;;;;;;;;;16.30;99.90;;;;;;4995145;28;20016;-86
2021/07/07 02:57:24;;;;;;;;;;;16.30;99.90;;;;;;5012627;28;19948;-86
2021/07/07 02:59:50;;;;;;;;;;;16.30;99.90;;;;;;4995074;28;19909;-86
2021/07/07 03:02:15;;;;;;;;;;;16.20;99.90;;;;;;5012083;28;19910;-86
2021/07/07 03:04:41;;;;;;;;;;;16.10;99.90;;;;;;5012728;28;19909;-86
2021/07/07 03:07:06;;;;;;;;;;;16.10;99.90;;;;;;4994847;28;20020;-86
2021/07/07 03:09:33;;;;;;;;;;;16.10;99.90;;;;;;4994924;28;19916;-87
2021/07/07 03:11:58;;;;;;;;;;;16.00;99.90;;;;;;4995025;28;19914;-86
2021/07/07 03:14:24;;;;;;;;;;;15.90;99.90;;;;;;4994920;28;19976;-86
2021/07/07 03:16:49;;;;;;;;;;;15.80;99.90;;;;;;4994940;28;19909;-85
2021/07/07 03:19:14;;;;;;;;;;;15.80;99.90;;;;;;5012497;28;19910;-85
2021/07/07 03:21:40;;;;;;;;;;;15.80;99.90;;;;;;4995002;28;19913;-86
2021/07/07 03:24:06;;;;;;;;;;;15.80;99.90;;;;;;4994925;28;19936;-85
2021/07/07 03:26:31;;;;;;;;;;;15.80;99.90;;;;;;4994764;28;19909;-86
2021/07/07 03:28:57;;;;;;;;;;;15.80;99.90;;;;;;4994883;28;20352;-85
2021/07/07 03:31:22;;;;;;;;;;;15.80;99.90;;;;;;5012167;28;19917;-85
2021/07/07 03:33:48;;;;;;;;;;;15.80;99.90;;;;;;4994853;28;20342;-85
2021/07/07 03:36:13;;;;;;;;;;;15.80;99.90;;;;;;4994565;28;19910;-85
2021/07/07 03:38:39;;;;;;;;;;;15.80;99.90;;;;;;5012412;28;19961;-85
2021/07/07 03:41:04;;;;;;;;;;;15.80;99.90;;;;;;4994775;28;20069;-85
2021/07/07 03:43:30;;;;;;;;;;;15.70;99.90;;;;;;4994977;28;19914;-85
2021/07/07 03:45:55;;;;;;;;;;;15.60;99.90;;;;;;4994882;28;19920;-85
2021/07/07 03:48:21;;;;;;;;;;;15.60;99.90;;;;;;5012092;28;19913;-85
2021/07/07 03:50:46;;;;;;;;;;;15.60;99.90;;;;;;5012285;28;20439;-85
2021/07/07 03:53:12;;;;;;;;;;;15.60;99.90;;;;;;5012405;28;19916;-86
2021/07/07 03:55:37;;;;;;;;;;;15.50;99.90;;;;;;4994795;28;20380;-85
2021/07/07 03:58:03;;;;;;;;;;;15.50;99.90;;;;;;5012037;28;20340;-86
2021/07/07 04:00:30;;;;;;;;;;;15.50;99.90;;;;;;4994473;28;19960;-86
2021/07/07 04:02:56;;;;;;;;;;;15.40;99.90;;;;;;5012207;28;19913;-86
2021/07/07 04:05:22;;;;;;;;;;;15.50;99.90;;;;;;4994615;28;19910;-86
2021/07/07 04:07:47;;;;;;;;;;;15.50;99.90;;;;;;4994484;28;19936;-86
2021/07/07 04:10:14;;;;;;;;;;;15.50;99.90;;;;;;4994645;28;19997;-86
2021/07/07 04:12:40;;;;;;;;;;;15.50;99.90;;;;;;4994583;28;19910;-86
2021/07/07 04:15:06;;;;;;;;;;;15.60;99.90;;;;;;4998264;28;20582;-86
2021/07/07 04:17:32;;;;;;;;;;;15.60;99.90;;;;;;4997623;28;19909;-85
2021/07/07 04:19:58;;;;;;;;;;;15.60;99.90;;;;;;4997945;28;19960;-86
2021/07/07 04:22:23;;;;;;;;;;;15.60;99.90;;;;;;5015541;28;19909;-86
2021/07/07 04:24:49;;;;;;;;;;;15.60;99.90;;;;;;4997958;28;19909;-86
2021/07/07 04:27:15;;;;;;;;;;;15.60;99.90;;;;;;4997529;28;19909;-85
2021/07/07 04:29:40;;;;;;;;;;;15.60;99.90;;;;;;4997711;28;19932;-86
2021/07/07 04:32:06;;;;;;;;;;;15.60;99.90;;;;;;4997682;28;19925;-86
2021/07/07 04:34:32;;;;;;;;;;;15.60;99.90;;;;;;4997900;28;19971;-86
2021/07/07 04:36:57;;;;;;;;;;;15.60;99.90;;;;;;4997511;28;19914;-87
2021/07/07 04:39:23;;;;;;;;;;;15.60;99.90;;;;;;4997757;28;19910;-85
2021/07/07 04:41:48;;;;;;;;;;;15.60;99.90;;;;;;4997446;28;20279;-86
2021/07/07 04:44:14;;;;;;;;;;;15.50;99.90;;;;;;4997526;28;19952;-85
2021/07/07 04:46:39;;;;;;;;;;;15.60;99.90;;;;;;4997649;28;20261;-86
2021/07/07 04:49:05;;;;;;;;;;;15.60;99.90;;;;;;4997471;28;19910;-84
2021/07/07 04:51:30;;;;;;;;;;;15.60;99.90;;;;;;4997508;28;19910;-85
2021/07/07 04:53:56;;;;;;;;;;;15.60;99.90;;;;;;4997491;28;19917;-87
2021/07/07 04:56:21;;;;;;;;;;;15.50;99.90;;;;;;4997207;28;20360;-86
2021/07/07 04:58:47;;;;;;;;;;;15.50;99.90;;;;;;4997054;28;19909;-86
2021/07/07 05:01:12;;;;;;;;;;;15.50;99.90;;;;;;5007810;28;19914;-86
2021/07/07 05:03:38;;;;;;;;;;;15.50;99.90;;;;;;5014613;28;19918;-85
2021/07/07 05:06:04;;;;;;;;;;;15.50;99.90;;;;;;4997055;28;19910;-86
2021/07/07 05:08:29;;;;;;;;;;;15.50;99.90;;;;;;4997012;28;19952;-85
2021/07/07 05:10:55;;;;;;;;;;;15.50;99.90;;;;;;4997082;28;19909;-86
2021/07/07 05:13:21;;;;;;;;;;;15.50;99.90;;;;;;4996957;28;20066;-86
2021/07/07 05:15:47;;;;;;;;;;;15.60;99.90;;;;;;5013890;28;19940;-85
2021/07/07 05:18:13;;;;;;;;;;;15.60;99.90;;;;;;5014023;28;19952;-86
2021/07/07 05:20:39;;;;;;;;;;;15.60;99.90;;;;;;4996748;28;20057;-86
2021/07/07 05:23:07;;;;;;;;;;;15.70;99.90;;;;;;4996777;28;19960;-86
2021/07/07 05:25:34;;;;;;;;;;;15.70;99.90;;;;;;4996211;28;19909;-85
2021/07/07 05:28:01;;;;;;;;;;;15.70;99.90;;;;;;4996403;28;19917;-85
2021/07/07 05:30:27;;;;;;;;;;;15.70;99.90;;;;;;5014105;28;19918;-86
2021/07/07 05:32:53;;;;;;;;;;;15.70;99.90;;;;;;4996717;28;19948;-86
2021/07/07 05:35:18;;;;;;;;;;;15.70;99.90;;;;;;4996774;28;20280;-85
2021/07/07 05:37:45;;;;;;;;;;;15.80;99.90;;;;;;5013989;28;19913;-85
2021/07/07 05:40:11;;;;;;;;;;;15.80;99.90;;;;;;4996610;28;19914;-86
2021/07/07 05:42:37;;;;;;;;;;;15.90;99.90;;;;;;4996638;28;20512;-85
2021/07/07 05:45:03;;;;;;;;;;;15.90;99.90;;;;;;5014117;28;20000;-86
2021/07/07 05:47:29;;;;;;;;;;;15.90;99.90;;;;;;5013787;28;20016;-85
2021/07/07 05:49:56;;;;;;;;;;;15.90;99.90;;;;;;4996495;28;19916;-85
2021/07/07 05:52:23;;;;;;;;;;;15.90;99.90;;;;;;4996488;28;19910;-86
2021/07/07 05:54:48;;;;;;;;;;;16.00;99.90;;;;;;4996420;28;20380;-85
2021/07/07 05:57:13;;;;;;;;;;;16.00;99.90;;;;;;5013735;28;19916;-85
2021/07/07 05:59:39;;;;;;;;;;;16.10;99.90;;;;;;4996136;28;19960;-85
2021/07/07 06:02:04;;;;;;;;;;;16.10;99.90;;;;;;5013681;28;19953;-85
2021/07/07 06:04:30;;;;;;;;;;;16.00;99.90;;;;;;4996278;28;20265;-86
2021/07/07 06:06:56;;;;;;;;;;;15.90;99.90;;;;;;5013616;28;19909;-86
2021/07/07 06:09:21;;;;;;;;;;;16.00;99.90;;;;;;4996100;28;19909;-86
2021/07/07 06:11:47;;;;;;;;;;;16.00;99.90;;;;;;4996269;28;19916;-85
2021/07/07 06:14:12;;;;;;;;;;;15.90;99.90;;;;;;5013620;28;20007;-85
2021/07/07 06:16:38;;;;;;;;;;;16.00;99.90;;;;;;5013456;28;19913;-86
2021/07/07 06:19:03;;;;;;;;;;;16.00;99.90;;;;;;4995871;28;19910;-85
2021/07/07 06:21:30;;;;;;;;;;;15.90;99.90;;;;;;4995755;28;19913;-86
2021/07/07 06:23:55;;;;;;;;;;;16.00;99.90;;;;;;5013554;28;20024;-86
2021/07/07 06:26:21;;;;;;;;;;;16.10;99.90;;;;;;5013286;28;19993;-86
2021/07/07 06:28:47;;;;;;;;;;;16.20;99.90;;;;;;4995819;28;20320;-86
2021/07/07 06:31:12;;;;;;;;;;;16.20;99.90;;;;;;5006115;28;19917;-86
2021/07/07 06:33:38;;;;;;;;;;;16.30;99.90;;;;;;4995848;28;19913;-86
2021/07/07 06:36:03;;;;;;;;;;;16.30;99.90;;;;;;5014891;28;19905;-84
2021/07/07 06:38:29;;;;;;;;;;;16.30;99.90;;;;;;5036661;28;19993;-84
2021/07/07 06:40:54;;;;;;;;;;;16.40;99.90;;;;;;5020308;28;19906;-85
2021/07/07 06:43:20;;;;;;;;;;;16.40;99.90;;;;;;5021101;28;19910;-86
2021/07/07 06:45:45;;;;;;;;;;;16.50;99.90;;;;;;4997269;28;19917;-86
2021/07/07 06:48:11;;;;;;;;;;;16.60;99.90;;;;;;5013419;28;19928;-86
2021/07/07 06:50:38;;;;;;;;;;;16.60;99.90;;;;;;5013149;28;19910;-87
2021/07/07 06:53:03;;;;;;;;;;;16.50;99.90;;;;;;5011803;28;20336;-86
2021/07/07 06:55:29;;;;;;;;;;;16.40;99.90;;;;;;4995331;28;19910;-86
2021/07/07 06:57:55;;;;;;;;;;;16.30;99.90;;;;;;5011716;28;20372;-85
2021/07/07 07:00:21;;;;;;;;;;;16.30;99.90;;;;;;4994883;28;19920;-84
2021/07/07 07:02:47;;;;;;;;;;;16.40;99.90;;;;;;5012987;28;19914;-85
2021/07/07 07:05:13;;;;;;;;;;;16.40;99.90;;;;;;4996113;28;19909;-84
2021/07/07 07:07:39;;;;;;;;;;;16.40;99.90;;;;;;4994972;28;19917;-85
2021/07/07 07:10:05;;;;;;;;;;;16.40;99.90;;;;;;4995290;28;19910;-85
2021/07/07 07:12:31;;;;;;;;;;;16.50;99.90;;;;;;4995302;28;19909;-85
2021/07/07 07:14:57;;;;;;;;;;;16.50;99.90;;;;;;4995201;28;19917;-85
2021/07/07 07:17:23;;;;;;;;;;;16.50;99.90;;;;;;4994886;28;19953;-85
2021/07/07 07:19:49;;;;;;;;;;;16.50;99.90;;;;;;4995118;28;19910;-85
2021/07/07 07:22:15;;;;;;;;;;;16.60;99.90;;;;;;4995283;28;20288;-85
2021/07/07 07:24:41;;;;;;;;;;;16.60;99.90;;;;;;4995126;28;19917;-86
2021/07/07 07:27:06;;;;;;;;;;;16.70;99.90;;;;;;5012644;28;19910;-85
2021/07/07 07:29:32;;;;;;;;;;;16.80;99.90;;;;;;5012733;28;19910;-85
2021/07/07 07:31:58;;;;;;;;;;;16.90;99.90;;;;;;4994910;28;20289;-85
2021/07/07 07:34:23;;;;;;;;;;;16.80;99.90;;;;;;5012512;28;20303;-85
2021/07/07 07:36:51;;;;;;;;;;;16.80;99.90;;;;;;4995177;28;19993;-86
2021/07/07 07:39:23;;;;;;;;;;;16.80;99.90;;;;;;4994945;28;19910;-85
2021/07/07 07:41:49;;;;;;;;;;;16.90;99.90;;;;;;4994976;28;19917;-85
2021/07/07 07:44:17;;;;;;;;;;;17.10;99.90;;;;;;4994103;28;19916;-85
2021/07/07 07:46:43;;;;;;;;;;;17.20;99.90;;;;;;4994909;28;19910;-86
2021/07/07 07:49:10;;;;;;;;;;;17.20;99.90;;;;;;4997233;28;20414;-85
2021/07/07 07:51:35;;;;;;;;;;;17.20;99.90;;;;;;4998735;28;20001;-85
2021/07/07 07:54:01;;;;;;;;;;;17.10;99.90;;;;;;4998682;28;19926;-85
2021/07/07 07:56:26;;;;;;;;;;;17.10;99.90;;;;;;4998538;28;20000;-86
2021/07/07 07:58:52;;;;;;;;;;;17.10;99.90;;;;;;4998061;28;19960;-85
2021/07/07 08:01:18;;;;;;;;;;;17.10;99.90;;;;;;4997777;28;20426;-85
2021/07/07 08:03:43;;;;;;;;;;;17.10;99.90;;;;;;4996830;28;19952;-85
2021/07/07 08:06:09;;;;;;;;;;;17.10;99.90;;;;;;4998379;28;20338;-86
2021/07/07 08:08:34;;;;;;;;;;;17.20;99.90;;;;;;4998407;28;19937;-85
2021/07/07 08:11:00;;;;;;;;;;;17.20;99.90;;;;;;4998439;28;19914;-85
2021/07/07 08:13:25;;;;;;;;;;;17.10;99.90;;;;;;4997818;28;20390;-85
2021/07/07 08:15:51;;;;;;;;;;;17.00;99.90;;;;;;4998115;28;19909;-86
2021/07/07 08:18:17;;;;;;;;;;;17.10;99.90;;;;;;4997785;28;19910;-86
2021/07/07 08:20:43;;;;;;;;;;;17.10;99.90;;;;;;5016725;28;20356;-86
2021/07/07 08:23:08;;;;;;;;;;;17.10;99.90;;;;;;4998306;28;19957;-85
2021/07/07 08:25:34;;;;;;;;;;;17.00;99.90;;;;;;4998638;28;19909;-86
2021/07/07 08:28:00;;;;;;;;;;;17.00;99.90;;;;;;4998132;28;19960;-85
2021/07/07 08:30:26;;;;;;;;;;;17.00;99.90;;;;;;4994914;28;19917;-86
2021/07/07 08:32:51;;;;;;;;;;;17.00;99.90;;;;;;4996150;28;20374;-87
2021/07/07 08:35:17;;;;;;;;;;;17.00;99.90;;;;;;4998018;28;20356;-86
2021/07/07 08:37:42;;;;;;;;;;;17.10;99.90;;;;;;4997571;28;19948;-85
2021/07/07 08:40:09;;;;;;;;;;;17.00;99.90;;;;;;4997907;28;20264;-86
2021/07/07 08:42:39;;;;;;;;;;;17.00;99.90;;;;;;5015398;28;19916;-86
2021/07/07 08:45:08;;;;;;;;;;;17.00;99.90;;;;;;4997823;28;19932;-86
2021/07/07 08:47:37;;;;;;;;;;;17.20;99.90;;;;;;4997672;28;19910;-86
2021/07/07 08:50:13;;;;;;;;;;;17.20;99.90;;;;;;4997752;28;19910;-84
2021/07/07 08:52:39;;;;;;;;;;;17.30;99.90;;;;;;5014929;28;20380;-84
2021/07/07 08:55:16;;;;;;;;;;;17.50;99.90;;;;;;4997429;28;19959;-86
2021/07/07 08:57:42;;;;;;;;;;;17.80;99.90;;;;;;4997348;28;19909;-86
2021/07/07 09:00:15;;;;;;;;;;;18.20;99.90;;;;;;4992170;28;20397;-86
2021/07/07 09:02:51;;;;;;;;;;;18.40;99.90;;;;;;5018073;28;19920;-84
2021/07/07 09:05:17;;;;;;;;;;;18.40;99.90;;;;;;5016935;28;20283;-85
2021/07/07 09:07:44;;;;;;;;;;;18.60;99.90;;;;;;5016263;28;19909;-84
2021/07/07 09:10:09;;;;;;;;;;;18.60;99.90;;;;;;5034622;28;19947;-83
2021/07/07 09:12:36;;;;;;;;;;;18.60;99.90;;;;;;5016875;28;19928;-84
2021/07/07 09:15:19;;;;;;;;;;;18.80;99.90;;;;;;5016861;28;20017;-84
2021/07/07 09:17:49;;;;;;;;;;;18.90;99.90;;;;;;5000920;28;19914;-85
2021/07/07 09:20:14;;;;;;;;;;;18.90;99.90;;;;;;4997010;28;19972;-85
2021/07/07 09:22:40;;;;;;;;;;;18.90;99.90;;;;;;4997497;28;19961;-84
2021/07/07 09:25:06;;;;;;;;;;;18.90;99.90;;;;;;4997332;28;19909;-85
2021/07/07 09:27:35;;;;;;;;;;;18.90;99.90;;;;;;4997321;28;20412;-85
2021/07/07 09:30:06;;;;;;;;;;;19.00;99.90;;;;;;5014891;28;19936;-85
2021/07/07 09:32:40;;;;;;;;;;;19.00;99.90;;;;;;4995843;28;19923;-83
2021/07/07 09:35:06;;;;;;;;;;;19.10;99.90;;;;;;4989801;28;19909;-85
2021/07/07 09:37:37;;;;;;;;;;;19.10;99.90;;;;;;4997850;28;19916;-85
2021/07/07 09:40:04;;;;;;;;;;;19.10;99.90;;;;;;4997674;28;19917;-84
2021/07/07 09:42:31;;;;;;;;;;;19.10;99.90;;;;;;4997634;28;19909;-84
2021/07/07 09:44:58;;;;;;;;;;;19.10;99.90;;;;;;4997456;28;19910;-84
2021/07/07 09:47:24;;;;;;;;;;;19.10;99.90;;;;;;4997221;28;19956;-85
2021/07/07 09:49:50;;;;;;;;;;;19.00;99.90;;;;;;5014976;28;20293;-85
2021/07/07 09:52:17;;;;;;;;;;;19.00;99.90;;;;;;4997603;28;19955;-85
2021/07/07 09:54:43;;;;;;;;;;;19.10;99.90;;;;;;5014941;28;19916;-85
2021/07/07 09:57:09;;;;;;;;;;;19.10;99.90;;;;;;4993189;28;19913;-86
2021/07/07 09:59:36;;;;;;;;;;;19.10;99.90;;;;;;4995967;28;19984;-84
2021/07/07 10:02:02;;;;;;;;;;;19.20;99.90;;;;;;4995504;28;19917;-85
2021/07/07 10:04:32;;;;;;;;;;;19.20;99.90;;;;;;4996207;28;19913;-85
2021/07/07 10:06:58;;;;;;;;;;;19.20;99.90;;;;;;5013664;28;19910;-85
2021/07/07 10:09:24;;;;;;;;;;;19.20;99.90;;;;;;4994414;28;19956;-81
2021/07/07 10:11:50;;;;;;;;;;;19.20;99.90;;;;;;4990514;28;19915;-84
2021/07/07 10:14:15;;;;;;;;;;;19.20;99.90;;;;;;4995964;28;19920;-85
2021/07/07 10:16:41;;;;;;;;;;;19.30;99.90;;;;;;5012744;28;19909;-86
2021/07/07 10:19:06;;;;;;;;;;;19.40;99.90;;;;;;5013433;28;19910;-86
2021/07/07 10:21:32;;;;;;;;;;;19.40;99.90;;;;;;4996019;28;19914;-85
2021/07/07 10:23:58;;;;;;;;;;;19.50;99.90;;;;;;4995704;28;19913;-85
2021/07/07 10:26:23;;;;;;;;;;;19.60;99.90;;;;;;4995552;28;19918;-85
2021/07/07 10:28:49;;;;;;;;;;;19.40;99.90;;;;;;5013251;28;20327;-85
2021/07/07 10:31:15;;;;;;;;;;;19.50;99.90;;;;;;4995462;28;19918;-86
2021/07/07 10:33:40;;;;;;;;;;;19.60;99.90;;;;;;4995851;28;19909;-85
2021/07/07 10:36:12;;;;;;;;;;;19.80;99.90;;;;;;4995397;28;19916;-85
2021/07/07 10:38:37;;;;;;;;;;;20.00;99.90;;;;;;4995032;28;19921;-84
2021/07/07 10:41:03;;;;;;;;;;;20.20;99.90;;;;;;4995625;28;19913;-85
2021/07/07 10:43:54;;;;;;;;;;;20.20;99.90;;;;;;5013135;28;19967;-86
2021/07/07 10:46:43;;;;;;;;;;;20.00;99.90;;;;;;4991655;28;19910;-85
2021/07/07 10:49:17;;;;;;;;;;;19.80;99.90;;;;;;4995171;28;20284;-86
2021/07/07 10:51:47;;;;;;;;;;;19.60;99.90;;;;;;4995563;28;19956;-85
2021/07/07 10:54:42;;;;;;;;;;;19.60;99.90;;;;;;4995666;28;19916;-86
2021/07/07 10:57:09;;;;;;;;;;;19.60;99.90;;;;;;4969218;28;19914;-85
2021/07/07 10:59:34;;;;;;;;;;;19.70;99.90;;;;;;4994629;28;20008;-85
2021/07/07 11:02:06;;;;;;;;;;;19.70;99.90;;;;;;4995066;28;20279;-84
2021/07/07 11:04:37;;;;;;;;;;;19.70;99.90;;;;;;4995177;28;20327;-85
2021/07/07 11:07:21;;;;;;;;;;;19.50;99.90;;;;;;5011230;28;19937;-85
2021/07/07 11:09:52;;;;;;;;;;;19.50;99.90;;;;;;5028924;28;19960;-85
2021/07/07 11:12:18;;;;;;;;;;;19.70;99.90;;;;;;5015000;28;19913;-85
2021/07/07 11:14:57;;;;;;;;;;;19.80;99.90;;;;;;5014877;28;20307;-85
2021/07/07 11:17:22;;;;;;;;;;;20.00;99.90;;;;;;5018023;28;19936;-85
2021/07/07 11:19:50;;;;;;;;;;;20.10;99.90;;;;;;4995083;28;19913;-85
2021/07/07 11:22:17;;;;;;;;;;;20.20;99.90;;;;;;4995165;28;20265;-85
2021/07/07 11:24:50;;;;;;;;;;;20.20;99.90;;;;;;5016074;28;19910;-85
2021/07/07 11:27:16;;;;;;;;;;;20.30;99.90;;;;;;4998922;28;20372;-85
2021/07/07 11:29:42;;;;;;;;;;;20.40;99.90;;;;;;4998867;28;19988;-85
2021/07/07 11:32:27;;;;;;;;;;;20.50;99.90;;;;;;5016389;28;19925;-86
2021/07/07 11:34:53;;;;;;;;;;;20.40;99.90;;;;;;4999031;28;19909;-86
2021/07/07 11:37:19;;;;;;;;;;;20.40;99.90;;;;;;5016601;28;19920;-85
2021/07/07 11:39:59;;;;;;;;;;;20.40;99.90;;;;;;4999408;28;19909;-86
2021/07/07 11:42:24;;;;;;;;;;;20.40;99.90;;;;;;4999257;28;19914;-85
2021/07/07 11:44:50;;;;;;;;;;;20.50;99.90;;;;;;4999243;28;19979;-85
2021/07/07 11:47:23;;;;;;;;;;;20.40;99.90;;;;;;4998450;28;20012;-86
2021/07/07 11:50:06;;;;;;;;;;;20.50;99.90;;;;;;5016502;28;19935;-84
2021/07/07 11:52:31;;;;;;;;;;;20.50;99.90;;;;;;4998939;28;19909;-85
2021/07/07 11:54:59;;;;;;;;;;;20.60;99.90;;;;;;5017608;28;19916;-86
2021/07/07 11:57:25;;;;;;;;;;;20.80;99.90;;;;;;5000285;28;20279;-84
2021/07/07 11:59:51;;;;;;;;;;;21.00;99.90;;;;;;4999660;28;19910;-84
2021/07/07 12:02:17;;;;;;;;;;;21.40;99.90;;;;;;5019344;28;19921;-85
2021/07/07 12:04:43;;;;;;;;;;;21.70;99.90;;;;;;5001773;28;19909;-84
2021/07/07 12:07:08;;;;;;;;;;;22.10;99.90;;;;;;5017352;28;19913;-85
2021/07/07 12:09:34;;;;;;;;;;;22.30;99.90;;;;;;5017609;28;20339;-84
2021/07/07 12:12:04;;;;;;;;;;;22.40;99.90;;;;;;5000431;28;19914;-84
2021/07/07 12:14:33;;;;;;;;;;;22.30;99.90;;;;;;5018192;28;19945;-84
2021/07/07 12:16:59;;;;;;;;;;;22.30;99.90;;;;;;4998840;28;19920;-84
2021/07/07 12:19:24;;;;;;;;;;;22.20;99.90;;;;;;4999825;28;19996;-84
2021/07/07 12:21:51;;;;;;;;;;;22.20;99.90;;;;;;4998887;28;19941;-84
2021/07/07 12:24:28;;;;;;;;;;;22.20;99.90;;;;;;4999858;28;19910;-84
2021/07/07 12:26:54;;;;;;;;;;;22.10;99.90;;;;;;5001100;28;19910;-85
2021/07/07 12:29:27;;;;;;;;;;;22.10;99.90;;;;;;5000720;28;19916;-83
2021/07/07 12:31:56;;;;;;;;;;;22.10;99.90;;;;;;5000782;28;19917;-84
2021/07/07 12:34:45;;;;;;;;;;;21.90;99.90;;;;;;4999602;28;19910;-84
2021/07/07 12:37:13;;;;;;;;;;;22.00;99.90;;;;;;4986211;28;20364;-85
2021/07/07 12:39:50;;;;;;;;;;;21.90;99.90;;;;;;4999932;28;19913;-84
2021/07/07 12:42:21;;;;;;;;;;;21.90;99.90;;;;;;5000355;28;19914;-85
2021/07/07 12:44:49;;;;;;;;;;;22.00;99.90;;;;;;5000569;28;19968;-84
2021/07/07 12:47:15;;;;;;;;;;;21.90;99.90;;;;;;5015236;28;19917;-85
2021/07/07 12:49:44;;;;;;;;;;;21.90;99.90;;;;;;4999709;28;19916;-86
2021/07/07 12:52:16;;;;;;;;;;;22.10;99.90;;;;;;5001237;28;19917;-85
2021/07/07 12:54:41;;;;;;;;;;;22.30;99.90;;;;;;5001559;28;19910;-84
2021/07/07 12:57:07;;;;;;;;;;;22.50;99.90;;;;;;5000664;28;19940;-85
2021/07/07 12:59:32;;;;;;;;;;;22.90;99.90;;;;;;4999652;28;20288;-86
2021/07/07 13:02:08;;;;;;;;;;;23.20;99.90;;;;;;5000426;28;19924;-86
2021/07/07 13:04:34;;;;;;;;;;;23.30;99.90;;;;;;5000788;28;19956;-84
2021/07/07 13:07:01;;;;;;;;;;;23.50;99.90;;;;;;5007774;28;19980;-85
2021/07/07 13:09:26;;;;;;;;;;;23.40;99.90;;;;;;5005896;28;19921;-85
2021/07/07 13:12:02;;;;;;;;;;;23.40;99.90;;;;;;5015508;28;19910;-84
2021/07/07 13:14:28;;;;;;;;;;;23.30;99.90;;;;;;4998458;28;19916;-86
2021/07/07 13:16:54;;;;;;;;;;;23.20;99.90;;;;;;5014812;28;19913;-86
2021/07/07 13:19:22;;;;;;;;;;;23.30;99.90;;;;;;4997608;28;19909;-86
2021/07/07 13:21:49;;;;;;;;;;;23.40;99.90;;;;;;5015350;28;19920;-86
2021/07/07 13:24:18;;;;;;;;;;;23.60;99.90;;;;;;5017331;28;20360;-86
2021/07/07 13:27:04;;;;;;;;;;;23.90;99.90;;;;;;5004661;28;19910;-85
2021/07/07 13:29:32;;;;;;;;;;;24.10;99.90;;;;;;4986880;28;19965;-84
2021/07/07 13:31:58;;;;;;;;;;;24.20;99.90;;;;;;5008264;28;20069;-85
2021/07/07 13:34:24;;;;;;;;;;;24.20;99.90;;;;;;5005417;28;19910;-83
2021/07/07 13:36:49;;;;;;;;;;;24.00;99.90;;;;;;5003029;28;19909;-85
2021/07/07 13:39:15;;;;;;;;;;;23.80;99.90;;;;;;5003573;28;19996;-85
2021/07/07 13:41:40;;;;;;;;;;;23.50;99.90;;;;;;5000261;28;19948;-86
2021/07/07 13:44:06;;;;;;;;;;;23.40;99.90;;;;;;4997775;28;20284;-85
2021/07/07 13:46:32;;;;;;;;;;;23.20;99.90;;;;;;5013732;28;19967;-86
2021/07/07 13:48:58;;;;;;;;;;;23.00;99.90;;;;;;5012810;28;19945;-86
2021/07/07 13:51:24;;;;;;;;;;;23.10;99.90;;;;;;5011347;28;20608;-87
2021/07/07 13:53:49;;;;;;;;;;;23.40;99.90;;;;;;4997166;28;19909;-86
2021/07/07 13:56:15;;;;;;;;;;;23.60;99.90;;;;;;4999890;28;19910;-85
2021/07/07 13:58:40;;;;;;;;;;;23.80;99.90;;;;;;4998624;28;20279;-84
2021/07/07 14:01:06;;;;;;;;;;;23.70;99.90;;;;;;4998492;28;19945;-86
2021/07/07 14:03:31;;;;;;;;;;;23.60;99.90;;;;;;4996846;28;20291;-86
2021/07/07 14:05:58;;;;;;;;;;;23.50;99.90;;;;;;4996820;28;19909;-85
2021/07/07 14:08:23;;;;;;;;;;;23.40;99.90;;;;;;4996572;28;19996;-86
2021/07/07 14:10:49;;;;;;;;;;;23.40;99.90;;;;;;5014114;28;19951;-85
2021/07/07 14:13:15;;;;;;;;;;;23.50;99.90;;;;;;5014432;28;19909;-85
2021/07/07 14:15:41;;;;;;;;;;;23.90;99.90;;;;;;4997605;28;19917;-85